sensor_id;sensor_type;location;lat;lon;timestamp;pressure;altitude;pressure_sealevel;temperature;humidity
75640;BME280;64233;51.486;6.332;2022-10-16T00:00:40;100789.41;;;12.28;100.00
75640;BME280;64233;51.486;6.332;2022-10-16T00:03:06;100792.13;;;12.28;99.88
75640;BME280;64233;51.486;6.332;2022-10-16T00:05:32;100783.19;;;12.22;100.00
75640;BME280;64233;51.486;6.332;2022-10-16T00:07:58;100779.41;;;12.18;100.00
75640;BME280;64233;51.486;6.332;2022-10-16T00:10:24;100783.44;;;12.20;100.00
75640;BME280;64233;51.486;6.332;2022-10-16T00:12:49;100783.19;;;12.22;100.00
75640;BME280;64233;51.486;6.332;2022-10-16T00:15:15;100785.66;;;12.34;99.94
75640;BME280;64233;51.486;6.332;2022-10-16T00:17:41;100785.91;;;12.27;100.00
75640;BME280;64233;51.486;6.332;2022-10-16T00:20:06;100780.25;;;12.23;100.00
75640;BME280;64233;51.486;6.332;2022-10-16T00:22:33;100782.41;;;12.32;99.69
75640;BME280;64233;51.486;6.332;2022-10-16T00:24:58;100783.78;;;12.34;99.97
75640;BME280;64233;51.486;6.332;2022-10-16T00:27:23;100777.88;;;12.37;99.45
75640;BME280;64233;51.486;6.332;2022-10-16T00:29:50;100784.38;;;12.47;99.16
75640;BME280;64233;51.486;6.332;2022-10-16T00:32:16;100784.66;;;12.45;99.19
75640;BME280;64233;51.486;6.332;2022-10-16T00:34:43;100782.75;;;12.40;99.30
75640;BME280;64233;51.486;6.332;2022-10-16T00:37:08;100777.03;;;12.32;99.66
75640;BME280;64233;51.486;6.332;2022-10-16T00:39:33;100781.63;;;12.31;99.94
75640;BME280;64233;51.486;6.332;2022-10-16T00:41:59;100783.78;;;12.29;99.85
75640;BME280;64233;51.486;6.332;2022-10-16T00:44:45;100781.03;;;12.24;99.81
75640;BME280;64233;51.486;6.332;2022-10-16T00:47:21;100778.63;;;12.22;99.64
75640;BME280;64233;51.486;6.332;2022-10-16T00:49:50;100781.28;;;12.17;99.91
75640;BME280;64233;51.486;6.332;2022-10-16T00:52:17;100776.16;;;12.11;100.00
75640;BME280;64233;51.486;6.332;2022-10-16T00:54:44;100781.00;;;12.14;100.00
75640;BME280;64233;51.486;6.332;2022-10-16T00:57:11;100779.69;;;12.16;99.98
75640;BME280;64233;51.486;6.332;2022-10-16T00:59:39;100778.00;;;12.10;99.73
75640;BME280;64233;51.486;6.332;2022-10-16T01:02:11;100785.81;;;12.12;100.00
75640;BME280;64233;51.486;6.332;2022-10-16T01:04:40;100781.28;;;12.12;99.86
75640;BME280;64233;51.486;6.332;2022-10-16T01:07:15;100785.28;;;12.10;100.00
75640;BME280;64233;51.486;6.332;2022-10-16T01:12:54;100785.06;;;12.16;99.81
75640;BME280;64233;51.486;6.332;2022-10-16T01:15:53;100786.38;;;12.14;99.46
75640;BME280;64233;51.486;6.332;2022-10-16T01:18:28;100788.25;;;12.13;99.83
75640;BME280;64233;51.486;6.332;2022-10-16T01:21:19;100782.09;;;12.18;99.12
75640;BME280;64233;51.486;6.332;2022-10-16T01:29:58;100775.06;;;12.12;99.33
75640;BME280;64233;51.486;6.332;2022-10-16T01:35:43;100769.28;;;11.93;99.70
75640;BME280;64233;51.486;6.332;2022-10-16T01:38:17;100774.88;;;11.86;99.70
75640;BME280;64233;51.486;6.332;2022-10-16T01:40:47;100762.25;;;11.86;99.81
75640;BME280;64233;51.486;6.332;2022-10-16T01:43:18;100760.66;;;11.91;99.01
75640;BME280;64233;51.486;6.332;2022-10-16T01:45:45;100759.56;;;11.86;99.68
75640;BME280;64233;51.486;6.332;2022-10-16T01:48:13;100762.19;;;11.76;99.60
75640;BME280;64233;51.486;6.332;2022-10-16T01:50:41;100762.47;;;11.80;99.37
75640;BME280;64233;51.486;6.332;2022-10-16T01:53:11;100756.63;;;11.88;99.33
75640;BME280;64233;51.486;6.332;2022-10-16T01:55:40;100768.78;;;11.96;99.03
75640;BME280;64233;51.486;6.332;2022-10-16T01:58:11;100786.28;;;11.98;98.60
75640;BME280;64233;51.486;6.332;2022-10-16T02:00:38;100797.31;;;11.97;98.94
75640;BME280;64233;51.486;6.332;2022-10-16T02:03:07;100802.09;;;11.89;99.22
75640;BME280;64233;51.486;6.332;2022-10-16T02:05:51;100800.53;;;11.94;98.69
75640;BME280;64233;51.486;6.332;2022-10-16T02:08:18;100793.78;;;11.96;98.93
75640;BME280;64233;51.486;6.332;2022-10-16T02:10:44;100800.53;;;11.99;98.69
75640;BME280;64233;51.486;6.332;2022-10-16T02:13:17;100797.84;;;11.94;98.71
75640;BME280;64233;51.486;6.332;2022-10-16T02:15:44;100805.91;;;11.94;99.00
75640;BME280;64233;51.486;6.332;2022-10-16T02:18:10;100796.75;;;11.95;98.43
75640;BME280;64233;51.486;6.332;2022-10-16T02:20:44;100797.31;;;11.97;99.12
75640;BME280;64233;51.486;6.332;2022-10-16T02:23:17;100803.41;;;11.92;98.87
75640;BME280;64233;51.486;6.332;2022-10-16T02:25:46;100807.75;;;11.93;98.54
75640;BME280;64233;51.486;6.332;2022-10-16T02:28:23;100804.78;;;11.89;99.05
75640;BME280;64233;51.486;6.332;2022-10-16T02:30:54;100802.03;;;11.84;99.00
75640;BME280;64233;51.486;6.332;2022-10-16T02:33:23;100799.91;;;11.86;98.89
75640;BME280;64233;51.486;6.332;2022-10-16T02:35:51;100790.22;;;11.91;98.98
75640;BME280;64233;51.486;6.332;2022-10-16T02:38:17;100793.25;;;11.94;98.93
75640;BME280;64233;51.486;6.332;2022-10-16T02:40:44;100799.59;;;11.83;98.98
75640;BME280;64233;51.486;6.332;2022-10-16T02:43:10;100797.72;;;11.83;99.05
75640;BME280;64233;51.486;6.332;2022-10-16T02:45:36;100795.28;;;11.77;99.32
75640;BME280;64233;51.486;6.332;2022-10-16T02:48:01;100793.13;;;11.79;99.38
75640;BME280;64233;51.486;6.332;2022-10-16T02:50:27;100797.97;;;11.82;98.92
75640;BME280;64233;51.486;6.332;2022-10-16T02:52:52;100795.03;;;11.83;98.75
75640;BME280;64233;51.486;6.332;2022-10-16T02:55:18;100782.66;;;11.82;99.27
75640;BME280;64233;51.486;6.332;2022-10-16T02:57:43;100792.66;;;11.87;98.76
75640;BME280;64233;51.486;6.332;2022-10-16T03:00:12;100794.81;;;11.90;98.43
75640;BME280;64233;51.486;6.332;2022-10-16T03:02:38;100799.13;;;11.91;98.72
75640;BME280;64233;51.486;6.332;2022-10-16T03:05:04;100803.94;;;11.84;98.75
75640;BME280;64233;51.486;6.332;2022-10-16T03:07:29;100796.13;;;11.82;98.86
75640;BME280;64233;51.486;6.332;2022-10-16T03:09:54;100792.34;;;11.83;98.51
75640;BME280;64233;51.486;6.332;2022-10-16T03:12:21;100797.22;;;11.86;98.48
75640;BME280;64233;51.486;6.332;2022-10-16T03:14:47;100793.75;;;11.91;98.67
75640;BME280;64233;51.486;6.332;2022-10-16T03:17:12;100791.09;;;11.96;98.21
75640;BME280;64233;51.486;6.332;2022-10-16T03:19:38;100783.88;;;12.02;97.81
75640;BME280;64233;51.486;6.332;2022-10-16T03:22:04;100791.66;;;11.98;98.27
75640;BME280;64233;51.486;6.332;2022-10-16T03:24:29;100794.38;;;11.98;98.01
75640;BME280;64233;51.486;6.332;2022-10-16T03:26:55;100798.69;;;11.99;97.78
75640;BME280;64233;51.486;6.332;2022-10-16T03:29:20;100796.25;;;12.03;97.76
75640;BME280;64233;51.486;6.332;2022-10-16T03:31:46;100792.78;;;12.02;97.93
75640;BME280;64233;51.486;6.332;2022-10-16T03:34:13;100797.06;;;11.98;97.75
75640;BME280;64233;51.486;6.332;2022-10-16T03:36:39;100800.53;;;11.99;98.17
75640;BME280;64233;51.486;6.332;2022-10-16T03:39:04;100809.44;;;11.99;98.17
75640;BME280;64233;51.486;6.332;2022-10-16T03:41:30;100819.44;;;12.09;97.78
75640;BME280;64233;51.486;6.332;2022-10-16T03:43:55;100836.13;;;12.11;97.88
75640;BME280;64233;51.486;6.332;2022-10-16T03:46:20;100822.84;;;11.94;98.15
75640;BME280;64233;51.486;6.332;2022-10-16T03:48:46;100818.84;;;11.97;97.78
75640;BME280;64233;51.486;6.332;2022-10-16T03:51:11;100818.94;;;12.12;97.44
75640;BME280;64233;51.486;6.332;2022-10-16T03:53:39;100810.50;;;12.03;98.13
75640;BME280;64233;51.486;6.332;2022-10-16T03:56:05;100807.03;;;12.03;98.09
75640;BME280;64233;51.486;6.332;2022-10-16T03:58:30;100806.81;;;12.15;97.10
75640;BME280;64233;51.486;6.332;2022-10-16T04:00:56;100812.47;;;12.13;97.50
75640;BME280;64233;51.486;6.332;2022-10-16T04:03:21;100814.34;;;12.13;97.41
75640;BME280;64233;51.486;6.332;2022-10-16T04:05:48;100812.75;;;12.17;97.15
75640;BME280;64233;51.486;6.332;2022-10-16T04:08:13;100820.53;;;12.08;97.38
75640;BME280;64233;51.486;6.332;2022-10-16T04:10:39;100824.22;;;12.02;97.85
75640;BME280;64233;51.486;6.332;2022-10-16T04:13:04;100837.19;;;12.05;97.77
75640;BME280;64233;51.486;6.332;2022-10-16T04:15:30;100830.44;;;12.02;98.08
75640;BME280;64233;51.486;6.332;2022-10-16T04:17:55;100830.19;;;12.09;97.94
75640;BME280;64233;51.486;6.332;2022-10-16T04:20:20;100833.66;;;11.99;98.38
75640;BME280;64233;51.486;6.332;2022-10-16T04:22:46;100828.81;;;12.01;98.11
75640;BME280;64233;51.486;6.332;2022-10-16T04:25:12;100839.03;;;12.04;97.74
75640;BME280;64233;51.486;6.332;2022-10-16T04:27:38;100841.91;;;11.93;98.33
75640;BME280;64233;51.486;6.332;2022-10-16T04:30:04;100846.25;;;11.94;98.17
75640;BME280;64233;51.486;6.332;2022-10-16T04:32:30;100853.72;;;11.92;98.67
75640;BME280;64233;51.486;6.332;2022-10-16T04:34:55;100854.06;;;11.95;98.31
75640;BME280;64233;51.486;6.332;2022-10-16T04:37:24;100862.69;;;11.97;98.20
75640;BME280;64233;51.486;6.332;2022-10-16T04:39:50;100850.88;;;12.03;98.14
75640;BME280;64233;51.486;6.332;2022-10-16T04:42:16;100858.22;;;12.13;97.38
75640;BME280;64233;51.486;6.332;2022-10-16T04:44:41;100860.56;;;12.04;98.13
75640;BME280;64233;51.486;6.332;2022-10-16T04:47:07;100865.41;;;12.02;98.03
75640;BME280;64233;51.486;6.332;2022-10-16T04:49:33;100865.69;;;12.06;98.19
75640;BME280;64233;51.486;6.332;2022-10-16T04:51:58;100854.34;;;11.99;98.26
75640;BME280;64233;51.486;6.332;2022-10-16T04:54:23;100867.53;;;11.95;98.40
75640;BME280;64233;51.486;6.332;2022-10-16T04:56:49;100868.81;;;11.93;98.27
75640;BME280;64233;51.486;6.332;2022-10-16T04:59:17;100869.16;;;12.01;98.31
75640;BME280;64233;51.486;6.332;2022-10-16T05:01:43;100872.66;;;12.02;97.93
75640;BME280;64233;51.486;6.332;2022-10-16T05:04:09;100881.84;;;12.06;98.03
75640;BME280;64233;51.486;6.332;2022-10-16T05:06:35;100882.41;;;12.08;97.55
75640;BME280;64233;51.486;6.332;2022-10-16T05:09:00;100877.56;;;12.10;98.00
75640;BME280;64233;51.486;6.332;2022-10-16T05:11:26;100891.59;;;12.17;97.67
75640;BME280;64233;51.486;6.332;2022-10-16T05:13:51;100891.88;;;12.16;97.60
75640;BME280;64233;51.486;6.332;2022-10-16T05:16:16;100894.22;;;12.07;98.12
75640;BME280;64233;51.486;6.332;2022-10-16T05:18:42;100886.94;;;12.02;98.27
75640;BME280;64233;51.486;6.332;2022-10-16T05:21:08;100889.63;;;12.02;98.39
75640;BME280;64233;51.486;6.332;2022-10-16T05:23:33;100883.25;;;12.14;97.93
75640;BME280;64233;51.486;6.332;2022-10-16T05:25:59;100883.25;;;12.14;97.83
75640;BME280;64233;51.486;6.332;2022-10-16T05:28:28;100887.47;;;11.99;98.08
75640;BME280;64233;51.486;6.332;2022-10-16T05:30:55;100891.47;;;12.02;98.23
75640;BME280;64233;51.486;6.332;2022-10-16T05:33:23;100901.19;;;12.03;97.92
75640;BME280;64233;51.486;6.332;2022-10-16T05:35:48;100896.28;;;11.95;98.32
75640;BME280;64233;51.486;6.332;2022-10-16T05:38:15;100895.72;;;11.93;98.57
75640;BME280;64233;51.486;6.332;2022-10-16T05:40:41;100898.72;;;11.96;98.70
75640;BME280;64233;51.486;6.332;2022-10-16T05:43:07;100906.13;;;11.84;98.38
75640;BME280;64233;51.486;6.332;2022-10-16T05:45:32;100905.28;;;11.83;99.03
75640;BME280;64233;51.486;6.332;2022-10-16T05:47:59;100916.09;;;11.88;98.75
75640;BME280;64233;51.486;6.332;2022-10-16T05:50:24;100916.28;;;11.77;99.10
75640;BME280;64233;51.486;6.332;2022-10-16T05:52:50;100921.09;;;11.75;98.97
75640;BME280;64233;51.486;6.332;2022-10-16T05:55:15;100932.09;;;11.73;99.56
75640;BME280;64233;51.486;6.332;2022-10-16T05:57:41;100935.72;;;11.84;98.94
75640;BME280;64233;51.486;6.332;2022-10-16T06:00:06;100939.16;;;11.79;99.00
75640;BME280;64233;51.486;6.332;2022-10-16T06:02:32;100937.63;;;11.88;98.81
75640;BME280;64233;51.486;6.332;2022-10-16T06:04:58;100941.69;;;11.91;98.99
75640;BME280;64233;51.486;6.332;2022-10-16T06:07:23;100948.06;;;11.85;98.83
75640;BME280;64233;51.486;6.332;2022-10-16T06:09:50;100941.44;;;11.93;98.89
75640;BME280;64233;51.486;6.332;2022-10-16T06:12:15;100945.09;;;11.81;98.85
75640;BME280;64233;51.486;6.332;2022-10-16T06:14:41;100950.41;;;11.76;99.18
75640;BME280;64233;51.486;6.332;2022-10-16T06:17:06;100955.00;;;11.76;99.41
75640;BME280;64233;51.486;6.332;2022-10-16T06:19:31;100959.59;;;11.80;99.38
75640;BME280;64233;51.486;6.332;2022-10-16T06:21:57;100976.31;;;11.82;98.87
75640;BME280;64233;51.486;6.332;2022-10-16T06:24:24;100974.94;;;11.80;99.48
75640;BME280;64233;51.486;6.332;2022-10-16T06:26:49;100979.28;;;11.86;99.15
75640;BME280;64233;51.486;6.332;2022-10-16T06:29:14;100984.31;;;11.77;99.81
75640;BME280;64233;51.486;6.332;2022-10-16T06:31:40;100980.31;;;11.80;99.79
75640;BME280;64233;51.486;6.332;2022-10-16T06:34:05;100983.81;;;11.80;99.43
75640;BME280;64233;51.486;6.332;2022-10-16T06:36:34;100993.50;;;11.81;99.69
75640;BME280;64233;51.486;6.332;2022-10-16T06:39:00;100999.94;;;11.80;99.74
75640;BME280;64233;51.486;6.332;2022-10-16T06:41:25;100996.97;;;11.77;99.75
75640;BME280;64233;51.486;6.332;2022-10-16T06:43:51;101011.53;;;11.81;99.88
75640;BME280;64233;51.486;6.332;2022-10-16T06:46:20;101018.09;;;11.68;100.00
75640;BME280;64233;51.486;6.332;2022-10-16T06:48:45;101025.28;;;11.84;99.65
75640;BME280;64233;51.486;6.332;2022-10-16T06:51:13;101027.78;;;11.69;99.61
75640;BME280;64233;51.486;6.332;2022-10-16T06:53:42;101031.16;;;11.81;100.00
75640;BME280;64233;51.486;6.332;2022-10-16T06:58:37;101044.03;;;11.79;99.91
75640;BME280;64233;51.486;6.332;2022-10-16T07:01:03;101048.31;;;11.75;100.00
75640;BME280;64233;51.486;6.332;2022-10-16T07:03:29;101050.78;;;11.82;99.48
75640;BME280;64233;51.486;6.332;2022-10-16T07:05:54;101056.06;;;11.71;100.00
75640;BME280;64233;51.486;6.332;2022-10-16T07:08:20;101059.69;;;11.82;100.00
75640;BME280;64233;51.486;6.332;2022-10-16T07:10:45;101068.91;;;11.92;99.65
75640;BME280;64233;51.486;6.332;2022-10-16T07:13:11;101063.41;;;12.03;99.38
75640;BME280;64233;51.486;6.332;2022-10-16T07:15:40;101062.41;;;12.10;99.36
75640;BME280;64233;51.486;6.332;2022-10-16T07:18:06;101054.84;;;12.34;98.83
75640;BME280;64233;51.486;6.332;2022-10-16T07:20:31;101056.75;;;12.38;98.87
75640;BME280;64233;51.486;6.332;2022-10-16T07:22:57;101064.38;;;12.47;97.97
75640;BME280;64233;51.486;6.332;2022-10-16T07:25:22;101072.75;;;12.50;98.30
75640;BME280;64233;51.486;6.332;2022-10-16T07:27:47;101069.31;;;12.60;97.67
75640;BME280;64233;51.486;6.332;2022-10-16T07:30:13;101079.88;;;12.67;97.23
75640;BME280;64233;51.486;6.332;2022-10-16T07:32:38;101081.84;;;12.77;96.75
75640;BME280;64233;51.486;6.332;2022-10-16T07:35:04;101076.56;;;12.92;96.52
75640;BME280;64233;51.486;6.332;2022-10-16T07:37:30;101084.69;;;12.97;95.73
75640;BME280;64233;51.486;6.332;2022-10-16T07:39:55;101090.66;;;13.04;96.63
75640;BME280;64233;51.486;6.332;2022-10-16T07:42:20;101102.81;;;13.07;95.95
75640;BME280;64233;51.486;6.332;2022-10-16T07:44:46;101107.97;;;13.14;96.27
75640;BME280;64233;51.486;6.332;2022-10-16T07:47:12;101121.75;;;13.17;96.77
75640;BME280;64233;51.486;6.332;2022-10-16T07:49:37;101122.59;;;13.23;96.39
75640;BME280;64233;51.486;6.332;2022-10-16T07:52:02;101118.31;;;13.27;96.19
75640;BME280;64233;51.486;6.332;2022-10-16T07:54:28;101125.88;;;13.30;95.42
75640;BME280;64233;51.486;6.332;2022-10-16T07:56:53;101134.00;;;13.35;95.61
75640;BME280;64233;51.486;6.332;2022-10-16T07:59:21;101131.91;;;13.42;95.73
75640;BME280;64233;51.486;6.332;2022-10-16T08:01:48;101135.69;;;13.47;95.02
75640;BME280;64233;51.486;6.332;2022-10-16T08:04:14;101146.25;;;13.53;96.05
75640;BME280;64233;51.486;6.332;2022-10-16T08:06:40;101147.34;;;13.57;95.48
75640;BME280;64233;51.486;6.332;2022-10-16T08:09:06;101144.38;;;13.54;94.41
75640;BME280;64233;51.486;6.332;2022-10-16T08:11:32;101156.31;;;13.68;95.32
75640;BME280;64233;51.486;6.332;2022-10-16T08:13:58;101159.78;;;13.64;94.25
75640;BME280;64233;51.486;6.332;2022-10-16T08:16:23;101164.41;;;13.68;94.31
75640;BME280;64233;51.486;6.332;2022-10-16T08:18:49;101168.50;;;13.81;93.67
75640;BME280;64233;51.486;6.332;2022-10-16T08:21:18;101177.66;;;13.80;94.51
75640;BME280;64233;51.486;6.332;2022-10-16T08:23:44;101181.22;;;13.86;94.06
75640;BME280;64233;51.486;6.332;2022-10-16T08:26:10;101179.63;;;13.95;94.30
75640;BME280;64233;51.486;6.332;2022-10-16T08:28:36;101176.09;;;13.94;93.54
75640;BME280;64233;51.486;6.332;2022-10-16T08:31:10;101186.41;;;14.03;94.39
75640;BME280;64233;51.486;6.332;2022-10-16T08:33:37;101185.06;;;14.05;93.37
75640;BME280;64233;51.486;6.332;2022-10-16T08:36:04;101194.28;;;14.09;93.21
75640;BME280;64233;51.486;6.332;2022-10-16T08:38:30;101193.72;;;14.12;93.09
75640;BME280;64233;51.486;6.332;2022-10-16T08:46:46;101206.75;;;14.31;93.05
75640;BME280;64233;51.486;6.332;2022-10-16T08:49:14;101204.91;;;14.47;92.65
75640;BME280;64233;51.486;6.332;2022-10-16T08:51:40;101209.78;;;14.45;92.72
75640;BME280;64233;51.486;6.332;2022-10-16T08:56:47;101220.31;;;14.57;91.70
75640;BME280;64233;51.486;6.332;2022-10-16T08:59:14;101228.16;;;14.53;91.30
75640;BME280;64233;51.486;6.332;2022-10-16T09:01:44;101228.50;;;14.72;92.69
75640;BME280;64233;51.486;6.332;2022-10-16T09:04:50;101228.47;;;14.67;91.57
75640;BME280;64233;51.486;6.332;2022-10-16T09:07:42;101221.69;;;14.59;91.94
75640;BME280;64233;51.486;6.332;2022-10-16T09:12:58;101223.09;;;14.83;90.57
75640;BME280;64233;51.486;6.332;2022-10-16T09:15:40;101245.56;;;14.83;92.82
75640;BME280;64233;51.486;6.332;2022-10-16T09:23:38;101246.66;;;15.03;90.70
75640;BME280;64233;51.486;6.332;2022-10-16T09:26:05;101245.03;;;15.17;90.58
75640;BME280;64233;51.486;6.332;2022-10-16T09:28:34;101252.06;;;15.28;90.42
75640;BME280;64233;51.486;6.332;2022-10-16T09:31:02;101241.22;;;15.08;89.20
75640;BME280;64233;51.486;6.332;2022-10-16T09:33:35;101252.88;;;15.13;88.44
75640;BME280;64233;51.486;6.332;2022-10-16T09:36:04;101255.28;;;15.15;88.09
75640;BME280;64233;51.486;6.332;2022-10-16T09:38:35;101261.25;;;15.17;89.97
75640;BME280;64233;51.486;6.332;2022-10-16T09:41:21;101270.44;;;15.26;91.12
75640;BME280;64233;51.486;6.332;2022-10-16T09:43:58;101265.84;;;15.37;90.36
75640;BME280;64233;51.486;6.332;2022-10-16T09:46:31;101264.22;;;15.52;90.58
75640;BME280;64233;51.486;6.332;2022-10-16T09:48:59;101263.41;;;15.51;89.11
75640;BME280;64233;51.486;6.332;2022-10-16T09:51:43;101260.69;;;15.56;88.95
75640;BME280;64233;51.486;6.332;2022-10-16T09:56:35;101273.41;;;15.50;88.70
75640;BME280;64233;51.486;6.332;2022-10-16T09:59:14;101268.81;;;15.66;88.62
75640;BME280;64233;51.486;6.332;2022-10-16T10:01:47;101256.63;;;15.59;88.35
75640;BME280;64233;51.486;6.332;2022-10-16T10:04:14;101257.97;;;15.77;89.59
75640;BME280;64233;51.486;6.332;2022-10-16T10:06:51;101250.41;;;15.89;88.49
75640;BME280;64233;51.486;6.332;2022-10-16T10:09:23;101253.09;;;15.84;87.78
75640;BME280;64233;51.486;6.332;2022-10-16T10:12:00;101263.66;;;15.91;88.17
75640;BME280;64233;51.486;6.332;2022-10-16T10:19:29;101268.81;;;15.82;85.83
75640;BME280;64233;51.486;6.332;2022-10-16T10:22:58;101270.16;;;15.84;85.96
75640;BME280;64233;51.486;6.332;2022-10-16T10:25:10;101275.28;;;15.86;86.51
75640;BME280;64233;51.486;6.332;2022-10-16T10:28:13;101278.00;;;15.91;86.19
75640;BME280;64233;51.486;6.332;2022-10-16T10:46:56;101286.53;;;16.24;85.44
75640;BME280;64233;51.486;6.332;2022-10-16T10:52:34;101300.38;;;16.23;84.66
75640;BME280;64233;51.486;6.332;2022-10-16T10:55:14;101293.03;;;16.28;85.03
75640;BME280;64233;51.486;6.332;2022-10-16T11:00:21;101294.22;;;15.91;85.12
75640;BME280;64233;51.486;6.332;2022-10-16T11:07:59;101298.19;;;16.30;84.59
75640;BME280;64233;51.486;6.332;2022-10-16T11:10:46;101294.56;;;16.55;83.01
75640;BME280;64233;51.486;6.332;2022-10-16T11:13:32;101301.91;;;16.49;81.52
75640;BME280;64233;51.486;6.332;2022-10-16T11:16:03;101302.63;;;16.65;83.37
75640;BME280;64233;51.486;6.332;2022-10-16T11:18:46;101306.72;;;16.63;82.51
75640;BME280;64233;51.486;6.332;2022-10-16T11:21:17;101313.91;;;16.93;82.71
75640;BME280;64233;51.486;6.332;2022-10-16T11:23:58;101309.16;;;16.64;81.86
75640;BME280;64233;51.486;6.332;2022-10-16T11:26:27;101308.50;;;16.83;81.96
75640;BME280;64233;51.486;6.332;2022-10-16T11:28:55;101309.19;;;16.54;81.68
75640;BME280;64233;51.486;6.332;2022-10-16T11:31:43;101311.53;;;16.76;82.41
75640;BME280;64233;51.486;6.332;2022-10-16T11:34:52;101305.53;;;16.79;80.45
75640;BME280;64233;51.486;6.332;2022-10-16T11:37:24;101311.66;;;16.50;80.85
75640;BME280;64233;51.486;6.332;2022-10-16T11:39:54;101312.94;;;16.63;82.80
75640;BME280;64233;51.486;6.332;2022-10-16T11:42:22;101305.34;;;16.65;82.24
75640;BME280;64233;51.486;6.332;2022-10-16T11:47:33;101321.56;;;16.76;81.03
75640;BME280;64233;51.486;6.332;2022-10-16T11:52:52;101316.84;;;16.37;82.65
75640;BME280;64233;51.486;6.332;2022-10-16T11:55:23;101319.22;;;16.48;82.10
75640;BME280;64233;51.486;6.332;2022-10-16T11:58:01;101322.06;;;16.17;80.92
75640;BME280;64233;51.486;6.332;2022-10-16T12:00:33;101325.06;;;16.11;82.89
75640;BME280;64233;51.486;6.332;2022-10-16T12:03:15;101330.72;;;16.20;82.16
75640;BME280;64233;51.486;6.332;2022-10-16T12:08:17;101342.81;;;16.43;81.53
75640;BME280;64233;51.486;6.332;2022-10-16T12:10:46;101331.66;;;16.60;81.73
75640;BME280;64233;51.486;6.332;2022-10-16T12:13:31;101337.84;;;16.76;81.32
75640;BME280;64233;51.486;6.332;2022-10-16T12:18:32;101325.56;;;16.83;82.20
75640;BME280;64233;51.486;6.332;2022-10-16T12:20:59;101330.66;;;17.00;79.84
75640;BME280;64233;51.486;6.332;2022-10-16T12:23:36;101321.97;;;17.03;77.85
75640;BME280;64233;51.486;6.332;2022-10-16T12:26:04;101329.50;;;17.17;78.74
75640;BME280;64233;51.486;6.332;2022-10-16T12:28:32;101328.09;;;17.19;79.14
75640;BME280;64233;51.486;6.332;2022-10-16T12:31:01;101331.44;;;17.06;76.49
75640;BME280;64233;51.486;6.332;2022-10-16T12:33:39;101324.22;;;16.91;78.68
75640;BME280;64233;51.486;6.332;2022-10-16T12:36:16;101326.03;;;17.01;80.19
75640;BME280;64233;51.486;6.332;2022-10-16T12:38:54;101333.50;;;17.19;80.50
75640;BME280;64233;51.486;6.332;2022-10-16T12:41:34;101332.28;;;17.01;77.15
75640;BME280;64233;51.486;6.332;2022-10-16T12:44:00;101335.72;;;17.12;78.74
75640;BME280;64233;51.486;6.332;2022-10-16T12:54:14;101321.56;;;17.26;79.53
75640;BME280;64233;51.486;6.332;2022-10-16T12:59:47;101340.28;;;17.22;79.01
75640;BME280;64233;51.486;6.332;2022-10-16T13:10:39;101330.78;;;16.80;80.96
75640;BME280;64233;51.486;6.332;2022-10-16T13:13:13;101332.88;;;16.98;78.96
75640;BME280;64233;51.486;6.332;2022-10-16T13:16:04;101335.53;;;17.03;77.55
75640;BME280;64233;51.486;6.332;2022-10-16T13:19:00;101343.16;;;17.01;78.61
75640;BME280;64233;51.486;6.332;2022-10-16T13:29:32;101344.81;;;16.87;77.97
75640;BME280;64233;51.486;6.332;2022-10-16T13:32:00;101332.38;;;16.81;78.36
75640;BME280;64233;51.486;6.332;2022-10-16T13:34:26;101330.47;;;16.81;79.93
75640;BME280;64233;51.486;6.332;2022-10-16T13:36:52;101343.19;;;16.86;80.71
75640;BME280;64233;51.486;6.332;2022-10-16T13:39:26;101337.78;;;16.91;79.85
75640;BME280;64233;51.486;6.332;2022-10-16T13:42:22;101339.38;;;16.97;79.43
75640;BME280;64233;51.486;6.332;2022-10-16T13:44:50;101346.63;;;17.07;80.76
75640;BME280;64233;51.486;6.332;2022-10-16T13:47:24;101342.00;;;17.08;80.25
75640;BME280;64233;51.486;6.332;2022-10-16T13:50:22;101344.44;;;17.09;80.18
75640;BME280;64233;51.486;6.332;2022-10-16T13:52:47;101351.00;;;17.03;82.89
75640;BME280;64233;51.486;6.332;2022-10-16T13:55:16;101352.16;;;16.92;81.20
75640;BME280;64233;51.486;6.332;2022-10-16T13:57:42;101357.00;;;16.90;79.85
75640;BME280;64233;51.486;6.332;2022-10-16T14:00:26;101370.59;;;16.79;80.42
75640;BME280;64233;51.486;6.332;2022-10-16T14:03:13;101374.94;;;16.80;80.18
75640;BME280;64233;51.486;6.332;2022-10-16T14:06:06;101366.53;;;16.77;80.64
75640;BME280;64233;51.486;6.332;2022-10-16T14:08:42;101356.81;;;16.76;80.05
75640;BME280;64233;51.486;6.332;2022-10-16T14:11:08;101358.16;;;16.73;79.50
75640;BME280;64233;51.486;6.332;2022-10-16T14:13:37;101363.53;;;16.78;80.74
75640;BME280;64233;51.486;6.332;2022-10-16T14:16:10;101371.97;;;16.77;81.34
75640;BME280;64233;51.486;6.332;2022-10-16T14:18:37;101374.69;;;16.77;80.90
75640;BME280;64233;51.486;6.332;2022-10-16T14:21:13;101369.25;;;16.82;81.25
75640;BME280;64233;51.486;6.332;2022-10-16T14:23:41;101368.41;;;16.86;82.16
75640;BME280;64233;51.486;6.332;2022-10-16T14:28:36;101370.59;;;16.84;82.62
75640;BME280;64233;51.486;6.332;2022-10-16T14:33:45;101373.31;;;16.79;79.91
75640;BME280;64233;51.486;6.332;2022-10-16T14:36:13;101367.09;;;16.79;80.35
75640;BME280;64233;51.486;6.332;2022-10-16T14:38:41;101368.72;;;16.75;82.00
75640;BME280;64233;51.486;6.332;2022-10-16T14:41:08;101360.88;;;16.73;80.50
75640;BME280;64233;51.486;6.332;2022-10-16T14:43:40;101352.81;;;16.63;82.74
75640;BME280;64233;51.486;6.332;2022-10-16T14:46:14;101362.00;;;16.62;83.95
75640;BME280;64233;51.486;6.332;2022-10-16T14:48:42;101352.53;;;16.59;82.90
75640;BME280;64233;51.486;6.332;2022-10-16T14:51:18;101342.50;;;16.60;84.31